Virgo Phoenix — 3FMO8 — position and weather

sailwx.info

Track history (hours):
 
Tides and Currents Weather Stations Pressure Air Temp Water Temp Dewpoint Dewpoint Depression Visibility Wind Speed Wind Dir Waves Ship Positions

Virgo Phoenix

Last reported at 2017-Mar-24 05:28 UTC. Time now 2017-Mar-24 22:06 UTC.
Position N 31°58' E 120°27'.

Length 96 m; draft 7 m.

Type: Ship (hazmat cat C). MMSI: 370795000.

Date/timePositionNaut miles runAvg speedWind from/ knotsBaromVisibWave heightAir tempDewpointWater temp
2017-Mar-24 05:28N 31°58' E 120°27'3 2.9
2017-Mar-24 04:33N 32°01' E 120°27'41 8.0
2017-Mar-23 23:27N 31°42' E 121°09'910.0
2017-Mar-23 22:33N 31°36' E 121°17'4 3.5
2017-Mar-23 21:32N 31°34' E 121°20'0 0.1
2017-Mar-23 20:32N 31°34' E 121°21'0 0.0
2017-Mar-23 19:32N 31°34' E 121°21'0 0.0
2017-Mar-23 18:29N 31°34' E 121°21'0 0.1
2017-Mar-23 17:29N 31°34' E 121°20'0 0.0
2017-Mar-23 16:32N 31°34' E 121°20'0 0.1
2017-Mar-23 15:32N 31°34' E 121°20'0 0.0
2017-Mar-23 14:32N 31°34' E 121°20'0 0.0
2017-Mar-23 13:29N 31°34' E 121°20'0 0.1
2017-Mar-23 12:20N 31°34' E 121°20'0 0.1
2017-Mar-23 11:32N 31°34' E 121°20'0 0.0
2017-Mar-23 10:29N 31°34' E 121°21'0 0.0
2017-Mar-23 09:32N 31°34' E 121°21'7 7.3
2017-Mar-23 08:33N 31°29' E 121°27'10 9.7
2017-Mar-23 07:34N 31°23' E 121°36'1110.6
2017-Mar-23 06:34N 31°18' E 121°47'1010.4
2017-Mar-23 05:34N 31°15' E 121°58'10 9.9
2017-Mar-23 04:31N 31°12' E 122°10'  
2017-Mar-18 03:33N 35°01' E 139°32'1313.2
2017-Mar-18 02:33N 35°10' E 139°44'1212.1
2017-Mar-18 01:33N 35°22' E 139°42'6 6.0
2017-Mar-18 00:33N 35°27' E 139°45'0 0.0
2017-Mar-17 23:33N 35°27' E 139°45'1 0.8
2017-Mar-17 22:34N 35°28' E 139°46'4 0.2
2017-Mar-16 23:25N 35°31' E 139°46'5 5.3
2017-Mar-16 22:33N 35°28' E 139°43'1 0.9
2017-Mar-16 21:28N 35°27' E 139°43'0 0.0
2017-Mar-16 20:28N 35°27' E 139°43'0 0.0
2017-Mar-16 19:31N 35°27' E 139°43'0 0.0
2017-Mar-16 18:31N 35°27' E 139°43'0 0.0
2017-Mar-16 17:31N 35°27' E 139°43'0 0.0
2017-Mar-16 16:31N 35°27' E 139°43'0 0.0
2017-Mar-16 15:31N 35°27' E 139°43'0 0.0
2017-Mar-16 14:31N 35°27' E 139°43'0 0.0
2017-Mar-16 13:31N 35°27' E 139°43'0 0.0
2017-Mar-16 12:31N 35°27' E 139°43'0 0.0
2017-Mar-16 11:31N 35°27' E 139°43'0 0.1
2017-Mar-16 10:31N 35°27' E 139°43'0 0.1
2017-Mar-16 09:31N 35°27' E 139°43'0 0.0
2017-Mar-16 08:31N 35°27' E 139°43'0 0.0
2017-Mar-16 07:31N 35°27' E 139°43'0 0.0
2017-Mar-16 06:31N 35°27' E 139°43'0 0.0
2017-Mar-16 05:31N 35°27' E 139°43'7 7.8
2017-Mar-16 04:34N 35°30' E 139°51'10 1.8
2017-Mar-15 23:10N 35°32' E 140°03'2 0.1
2017-Mar-14 17:17N 35°33' E 140°01'0 0.0
2017-Mar-14 16:14N 35°33' E 140°01'9 1.3
2017-Mar-14 09:33N 35°29' E 139°52'1212.1
2017-Mar-14 08:33N 35°18' E 139°45'1312.7
2017-Mar-14 07:33N 35°05' E 139°46'1312.3
2017-Mar-14 06:32N 34°53' E 139°44'  
Track history (hours):
 
Tides and Currents Weather Stations Pressure Air Temp Water Temp Dewpoint Dewpoint Depression Visibility Wind Speed Wind Dir Waves Ship Positions

Virgo Phoenix

Last reported at 2017-Mar-24 05:28 UTC. Time now 2017-Mar-24 22:06 UTC.
Position N 31°58' E 120°27'.

Length 96 m; draft 7 m.

Type: Ship (hazmat cat C). MMSI: 370795000.

Date/timePositionNaut miles runAvg speedWind from/ knotsBaromVisibWave heightAir tempDewpointWater temp
2017-Mar-24 05:28N 31°58' E 120°27'3 2.9
2017-Mar-24 04:33N 32°01' E 120°27'41 8.0
2017-Mar-23 23:27N 31°42' E 121°09'910.0
2017-Mar-23 22:33N 31°36' E 121°17'4 3.5
2017-Mar-23 21:32N 31°34' E 121°20'0 0.1
2017-Mar-23 20:32N 31°34' E 121°21'0 0.0
2017-Mar-23 19:32N 31°34' E 121°21'0 0.0
2017-Mar-23 18:29N 31°34' E 121°21'0 0.1
2017-Mar-23 17:29N 31°34' E 121°20'0 0.0
2017-Mar-23 16:32N 31°34' E 121°20'0 0.1
2017-Mar-23 15:32N 31°34' E 121°20'0 0.0
2017-Mar-23 14:32N 31°34' E 121°20'0 0.0
2017-Mar-23 13:29N 31°34' E 121°20'0 0.1
2017-Mar-23 12:20N 31°34' E 121°20'0 0.1
2017-Mar-23 11:32N 31°34' E 121°20'0 0.0
2017-Mar-23 10:29N 31°34' E 121°21'0 0.0
2017-Mar-23 09:32N 31°34' E 121°21'7 7.3
2017-Mar-23 08:33N 31°29' E 121°27'10 9.7
2017-Mar-23 07:34N 31°23' E 121°36'1110.6
2017-Mar-23 06:34N 31°18' E 121°47'1010.4
2017-Mar-23 05:34N 31°15' E 121°58'10 9.9
2017-Mar-23 04:31N 31°12' E 122°10'  
2017-Mar-18 03:33N 35°01' E 139°32'1313.2
2017-Mar-18 02:33N 35°10' E 139°44'1212.1
2017-Mar-18 01:33N 35°22' E 139°42'6 6.0
2017-Mar-18 00:33N 35°27' E 139°45'0 0.0
2017-Mar-17 23:33N 35°27' E 139°45'1 0.8
2017-Mar-17 22:34N 35°28' E 139°46'4 0.2
2017-Mar-16 23:25N 35°31' E 139°46'5 5.3
2017-Mar-16 22:33N 35°28' E 139°43'1 0.9
2017-Mar-16 21:28N 35°27' E 139°43'0 0.0
2017-Mar-16 20:28N 35°27' E 139°43'0 0.0
2017-Mar-16 19:31N 35°27' E 139°43'0 0.0
2017-Mar-16 18:31N 35°27' E 139°43'0 0.0
2017-Mar-16 17:31N 35°27' E 139°43'0 0.0
2017-Mar-16 16:31N 35°27' E 139°43'0 0.0
2017-Mar-16 15:31N 35°27' E 139°43'0 0.0
2017-Mar-16 14:31N 35°27' E 139°43'0 0.0
2017-Mar-16 13:31N 35°27' E 139°43'0 0.0
2017-Mar-16 12:31N 35°27' E 139°43'0 0.0
2017-Mar-16 11:31N 35°27' E 139°43'0 0.1
2017-Mar-16 10:31N 35°27' E 139°43'0 0.1
2017-Mar-16 09:31N 35°27' E 139°43'0 0.0
2017-Mar-16 08:31N 35°27' E 139°43'0 0.0
2017-Mar-16 07:31N 35°27' E 139°43'0 0.0
2017-Mar-16 06:31N 35°27' E 139°43'0 0.0
2017-Mar-16 05:31N 35°27' E 139°43'7 7.8
2017-Mar-16 04:34N 35°30' E 139°51'10 1.8
2017-Mar-15 23:10N 35°32' E 140°03'2 0.1
2017-Mar-14 17:17N 35°33' E 140°01'0 0.0
2017-Mar-14 16:14N 35°33' E 140°01'9 1.3
2017-Mar-14 09:33N 35°29' E 139°52'1212.1
2017-Mar-14 08:33N 35°18' E 139°45'1312.7
2017-Mar-14 07:33N 35°05' E 139°46'1312.3
2017-Mar-14 06:32N 34°53' E 139°44'  

Dump ship's entire track history